createdAt,value
2018-01-12T00:01:49.502Z,7.20
2018-01-12T00:04:21.302Z,7.20
2018-01-12T00:06:52.603Z,7.30
2018-01-12T00:09:27.936Z,7.30
2018-01-12T00:12:00.005Z,7.30
2018-01-12T00:14:29.830Z,7.30
2018-01-12T00:17:00.241Z,7.20
2018-01-12T00:19:29.782Z,7.20
2018-01-12T00:21:59.698Z,7.20
2018-01-12T00:24:31.981Z,7.20
2018-01-12T00:27:01.770Z,7.10
2018-01-12T00:29:31.347Z,7.10
2018-01-12T00:32:00.966Z,7.10
2018-01-12T00:34:30.738Z,7.10
2018-01-12T00:37:01.533Z,7.20
2018-01-12T00:39:31.351Z,7.20
2018-01-12T00:42:10.596Z,7.20
2018-01-12T00:44:40.393Z,7.20
2018-01-12T00:47:10.162Z,7.20
2018-01-12T00:49:39.770Z,7.20
2018-01-12T00:52:09.999Z,7.30
2018-01-12T00:54:41.353Z,7.20
2018-01-12T00:57:11.365Z,7.20
2018-01-12T00:59:42.401Z,7.20
2018-01-12T01:02:19.660Z,7.20
2018-01-12T01:05:00.748Z,7.20
2018-01-12T01:07:39.592Z,7.20
2018-01-12T01:10:09.371Z,7.30
2018-01-12T01:12:39.972Z,7.30
2018-01-12T01:15:14.895Z,7.30
2018-01-12T01:17:44.658Z,7.30
2018-01-12T01:20:14.379Z,7.30
2018-01-12T01:22:43.935Z,7.30
2018-01-12T01:25:13.595Z,7.20
2018-01-12T01:27:43.190Z,7.20
2018-01-12T01:30:13.440Z,6.90
2018-01-12T01:32:43.444Z,6.90
2018-01-12T01:35:12.946Z,6.90
2018-01-12T01:37:42.407Z,6.90
2018-01-12T01:40:11.984Z,6.90
2018-01-12T01:42:41.592Z,6.90
2018-01-12T01:45:11.060Z,7.00
2018-01-12T01:47:40.571Z,7.00
2018-01-12T01:50:10.485Z,7.00
2018-01-12T01:52:40.550Z,6.90
2018-01-12T01:55:10.151Z,6.80
2018-01-12T01:57:39.691Z,6.80
2018-01-12T02:00:09.992Z,6.80
2018-01-12T02:02:40.013Z,6.80
2018-01-12T02:05:09.615Z,6.80
2018-01-12T02:07:39.783Z,6.60
2018-01-12T02:10:15.792Z,6.70
2018-01-12T02:12:46.515Z,6.70
2018-01-12T02:15:17.474Z,6.70
2018-01-12T02:17:47.017Z,6.70
2018-01-12T02:20:17.057Z,6.70
2018-01-12T02:22:47.754Z,6.60
2018-01-12T02:25:18.227Z,6.50
2018-01-12T02:27:49.333Z,6.50
2018-01-12T02:30:20.051Z,6.50
2018-01-12T02:32:53.313Z,6.40
2018-01-12T02:35:23.018Z,6.30
2018-01-12T02:37:52.621Z,6.30
2018-01-12T02:40:22.275Z,6.30
2018-01-12T02:42:52.546Z,6.30
2018-01-12T02:45:22.638Z,6.30
2018-01-12T02:47:52.583Z,6.30
2018-01-12T02:50:22.134Z,6.30
2018-01-12T02:52:52.165Z,6.20
2018-01-12T02:55:22.895Z,6.30
2018-01-12T02:57:53.184Z,6.40
2018-01-12T03:00:22.834Z,6.30
2018-01-12T03:02:52.609Z,6.30
2018-01-12T03:05:23.353Z,6.30
2018-01-12T03:07:53.829Z,6.30
2018-01-12T03:10:24.620Z,6.30
2018-01-12T03:12:54.040Z,6.30
2018-01-12T03:15:23.687Z,6.30
2018-01-12T03:17:54.625Z,6.30
2018-01-12T03:20:24.520Z,6.20
2018-01-12T03:22:58.798Z,6.20
2018-01-12T03:25:39.442Z,6.20
2018-01-12T03:28:21.576Z,6.10
2018-01-12T03:30:51.308Z,6.10
2018-01-12T03:33:22.027Z,6.20
2018-01-12T03:35:56.009Z,6.20
2018-01-12T03:38:26.556Z,6.20
2018-01-12T03:41:11.577Z,6.20
2018-01-12T03:43:46.957Z,6.20
2018-01-12T03:46:17.866Z,6.10
2018-01-12T03:48:47.977Z,6.10
2018-01-12T03:51:20.831Z,6.00
2018-01-12T03:53:53.674Z,6.00
2018-01-12T03:56:23.120Z,6.10
2018-01-12T03:58:52.590Z,6.00
2018-01-12T04:01:22.163Z,6.00
2018-01-12T04:03:53.654Z,6.10
2018-01-12T04:06:23.107Z,6.20
2018-01-12T04:08:53.390Z,6.20
2018-01-12T04:12:25.870Z,6.20
2018-01-12T04:14:55.324Z,6.20
2018-01-12T04:17:24.877Z,6.10
2018-01-12T04:19:54.504Z,6.00
2018-01-12T04:22:29.935Z,6.00
2018-01-12T04:25:00.581Z,6.10
2018-01-12T04:27:31.039Z,6.10
2018-01-12T04:30:02.208Z,6.10
2018-01-12T04:32:32.625Z,6.00
2018-01-12T04:35:02.104Z,6.00
2018-01-12T04:37:31.771Z,6.00
2018-01-12T04:40:02.393Z,5.90
2018-01-12T04:42:31.980Z,5.90
2018-01-12T04:45:01.782Z,5.80
2018-01-12T04:47:31.433Z,5.70
2018-01-12T04:50:01.004Z,5.70
2018-01-12T04:52:30.538Z,5.80
2018-01-12T04:55:00.005Z,5.80
2018-01-12T04:57:29.695Z,5.80
2018-01-12T04:59:59.268Z,5.70
2018-01-12T05:02:28.714Z,5.70
2018-01-12T05:04:58.328Z,5.60
2018-01-12T05:07:28.038Z,5.60
2018-01-12T05:09:57.652Z,5.50
2018-01-12T05:12:27.047Z,5.60
2018-01-12T05:14:56.771Z,5.60
2018-01-12T05:17:26.225Z,5.70
2018-01-12T05:19:55.817Z,5.70
2018-01-12T05:22:25.695Z,5.80
2018-01-12T05:24:55.377Z,5.80
2018-01-12T05:27:27.242Z,5.70
2018-01-12T05:29:56.820Z,5.70
2018-01-12T05:32:26.501Z,5.70
2018-01-12T05:34:56.284Z,5.60
2018-01-12T05:37:25.809Z,5.70
2018-01-12T05:39:55.528Z,5.60
2018-01-12T05:42:25.773Z,5.70
2018-01-12T05:44:56.284Z,5.70
2018-01-12T05:47:25.786Z,5.70
2018-01-12T05:49:56.061Z,5.80
2018-01-12T05:52:25.534Z,5.70
2018-01-12T05:54:55.431Z,5.80
2018-01-12T05:57:25.102Z,5.70
2018-01-12T05:59:54.666Z,5.50
2018-01-12T06:04:39.028Z,5.50
2018-01-12T06:07:08.721Z,5.50
2018-01-12T06:09:39.122Z,5.60
2018-01-12T06:12:08.801Z,5.50
2018-01-12T06:14:38.569Z,5.60
2018-01-12T06:17:08.891Z,5.50
2018-01-12T06:19:39.129Z,5.50
2018-01-12T06:22:08.673Z,5.50
2018-01-12T06:24:38.331Z,5.50
2018-01-12T06:28:10.527Z,5.40
2018-01-12T06:30:41.483Z,5.30
2018-01-12T06:33:11.062Z,5.30
2018-01-12T06:35:41.297Z,5.40
2018-01-12T06:38:11.708Z,5.50
2018-01-12T06:40:41.881Z,5.50
2018-01-12T06:43:11.775Z,5.40
2018-01-12T06:45:42.174Z,5.40
2018-01-12T06:48:11.819Z,5.40
2018-01-12T06:50:42.057Z,5.40
2018-01-12T06:53:11.925Z,5.40
2018-01-12T06:55:42.051Z,5.40
2018-01-12T06:58:12.453Z,5.30
2018-01-12T07:00:42.518Z,5.30
2018-01-12T07:03:12.397Z,5.40
2018-01-12T07:05:41.937Z,5.40
2018-01-12T07:08:19.822Z,5.40
2018-01-12T07:10:52.798Z,5.40
2018-01-12T07:13:23.025Z,5.40
2018-01-12T07:15:53.283Z,5.60
2018-01-12T07:18:22.977Z,5.60
2018-01-12T07:24:09.044Z,5.60
2018-01-12T07:26:38.761Z,5.60
2018-01-12T07:29:09.046Z,5.70
2018-01-12T07:31:39.241Z,5.70
2018-01-12T07:34:08.715Z,5.60
2018-01-12T07:36:38.782Z,5.60
2018-01-12T07:39:08.291Z,5.60
2018-01-12T07:41:37.954Z,5.70
2018-01-12T07:44:08.434Z,5.60
2018-01-12T07:46:38.141Z,5.60
2018-01-12T07:49:08.578Z,5.70
2018-01-12T07:51:38.436Z,5.60
2018-01-12T07:54:09.002Z,5.50
2018-01-12T07:56:38.778Z,5.60
2018-01-12T07:59:11.694Z,5.60
2018-01-12T08:01:45.809Z,5.60
2018-01-12T08:04:15.481Z,5.70
2018-01-12T08:06:45.008Z,5.70
2018-01-12T08:09:14.736Z,5.80
2018-01-12T08:11:44.409Z,5.80
2018-01-12T08:14:14.263Z,5.80
2018-01-12T08:16:44.299Z,5.70
2018-01-12T08:19:13.792Z,5.80
2018-01-12T08:21:43.782Z,5.80
2018-01-12T08:24:13.320Z,5.80
2018-01-12T08:26:42.804Z,5.80
2018-01-12T08:29:13.355Z,6.00
2018-01-12T08:31:43.760Z,5.90
2018-01-12T08:34:13.419Z,6.10
2018-01-12T08:36:43.233Z,6.20
2018-01-12T08:39:12.740Z,6.30
2018-01-12T08:41:42.590Z,6.20
2018-01-12T08:44:12.823Z,6.00
2018-01-12T08:46:42.483Z,6.00
2018-01-12T08:49:12.182Z,6.10
2018-01-12T08:51:41.809Z,6.20
2018-01-12T08:54:11.630Z,6.20
2018-01-12T08:56:41.823Z,6.10
2018-01-12T08:59:11.535Z,6.00
2018-01-12T09:01:41.152Z,5.90
2018-01-12T09:04:10.754Z,6.00
2018-01-12T09:06:40.232Z,5.90
2018-01-12T09:09:09.844Z,5.80
2018-01-12T09:11:40.495Z,5.80
2018-01-12T09:14:24.064Z,5.70
2018-01-12T09:16:53.891Z,5.90
2018-01-12T09:19:33.863Z,6.10
2018-01-12T09:22:10.006Z,6.10
2018-01-12T09:24:45.649Z,6.20
2018-01-12T09:27:15.446Z,6.20
2018-01-12T09:29:54.362Z,6.40
2018-01-12T09:32:32.364Z,6.50
2018-01-12T09:35:02.710Z,6.60
2018-01-12T09:37:34.616Z,6.50
2018-01-12T09:40:13.380Z,6.50
2018-01-12T09:42:43.777Z,6.50
2018-01-12T09:45:14.596Z,6.60
2018-01-12T09:47:49.087Z,6.60
2018-01-12T09:50:21.403Z,6.70
2018-01-12T09:52:51.887Z,6.50
2018-01-12T09:55:21.901Z,6.50
2018-01-12T09:57:51.543Z,6.40
2018-01-12T10:00:28.483Z,6.50
2018-01-12T10:03:00.072Z,6.40
2018-01-12T10:05:30.570Z,6.40
2018-01-12T10:08:06.136Z,6.40
2018-01-12T10:10:35.922Z,6.40
2018-01-12T10:13:05.783Z,6.20
2018-01-12T10:15:37.010Z,6.40
2018-01-12T10:18:14.013Z,6.40
2018-01-12T10:20:44.724Z,6.40
2018-01-12T10:23:15.536Z,6.30
2018-01-12T10:25:46.333Z,6.40
2018-01-12T10:28:20.978Z,6.30
2018-01-12T10:31:06.239Z,6.60
2018-01-12T10:33:50.519Z,6.60
2018-01-12T10:36:21.396Z,6.50
2018-01-12T10:38:59.562Z,6.50
2018-01-12T10:41:34.633Z,6.50
2018-01-12T10:44:05.417Z,6.60
2018-01-12T10:46:43.787Z,6.80
2018-01-12T10:49:24.407Z,6.70
2018-01-12T10:52:03.428Z,6.70
2018-01-12T10:54:34.429Z,6.60
2018-01-12T10:57:04.385Z,6.60
2018-01-12T10:59:37.144Z,6.70
2018-01-12T11:02:24.217Z,6.90
2018-01-12T11:05:04.134Z,6.80
2018-01-12T11:07:34.920Z,6.50
2018-01-12T11:10:08.820Z,6.40
2018-01-12T11:12:41.738Z,6.60
2018-01-12T11:15:13.043Z,6.60
2018-01-12T11:17:50.171Z,6.40
2018-01-12T11:20:20.861Z,6.40
2018-01-12T11:22:54.963Z,6.40
2018-01-12T11:25:26.780Z,6.40
2018-01-12T11:28:02.345Z,6.50
2018-01-12T11:30:38.739Z,6.70
2018-01-12T11:33:10.393Z,6.70
2018-01-12T11:35:40.602Z,6.70
2018-01-12T11:38:12.607Z,6.40
2018-01-12T11:40:51.211Z,6.40
2018-01-12T11:43:23.982Z,6.60
2018-01-12T11:46:00.780Z,6.60
2018-01-12T11:48:36.912Z,6.70
2018-01-12T11:51:14.078Z,6.90
2018-01-12T11:53:47.634Z,7.00
2018-01-12T11:56:17.564Z,7.00
2018-01-12T11:58:57.508Z,7.00
2018-01-12T12:01:30.885Z,7.00
2018-01-12T12:04:04.703Z,7.00
2018-01-12T12:06:40.751Z,7.10
2018-01-12T12:09:33.611Z,7.20
2018-01-12T12:12:15.948Z,7.20
2018-01-12T12:14:53.270Z,7.20
2018-01-12T12:17:25.593Z,7.20
2018-01-12T12:19:58.920Z,7.30
2018-01-12T12:22:30.348Z,7.20
2018-01-12T12:25:02.358Z,7.20
2018-01-12T12:27:34.033Z,7.30
2018-01-12T12:30:11.022Z,7.20
2018-01-12T12:32:47.420Z,7.10
2018-01-12T12:35:29.980Z,7.10
2018-01-12T12:38:15.905Z,7.00
2018-01-12T12:41:08.816Z,6.90
2018-01-12T12:43:59.647Z,7.00
2018-01-12T12:46:47.241Z,7.00
2018-01-12T12:49:30.349Z,7.00
2018-01-12T12:55:08.197Z,7.40
2018-01-12T12:57:51.356Z,7.40
2018-01-12T13:00:34.593Z,7.40
2018-01-12T13:03:17.532Z,7.50
2018-01-12T13:05:50.573Z,7.50
2018-01-12T13:08:21.005Z,7.70
2018-01-12T13:10:50.711Z,7.70
2018-01-12T13:13:23.168Z,7.60
2018-01-12T13:16:05.240Z,7.50
2018-01-12T13:18:38.704Z,7.50
2018-01-12T13:21:14.060Z,7.40
2018-01-12T13:23:45.060Z,7.20
2018-01-12T13:26:16.572Z,7.20
2018-01-12T13:28:47.813Z,7.20
2018-01-12T13:31:19.505Z,7.20
2018-01-12T13:33:53.308Z,7.10
2018-01-12T13:36:26.866Z,7.20
2018-01-12T13:39:01.702Z,7.30
2018-01-12T13:41:43.997Z,7.30
2018-01-12T13:44:28.504Z,7.40
2018-01-12T13:46:59.774Z,7.40
2018-01-12T13:49:38.529Z,7.50
2018-01-12T13:52:17.190Z,7.50
2018-01-12T13:54:49.408Z,7.50
2018-01-12T13:57:21.219Z,7.60
2018-01-12T13:59:52.981Z,7.50
2018-01-12T14:02:34.230Z,7.50
2018-01-12T14:05:11.654Z,7.50
2018-01-12T14:07:49.933Z,7.60
2018-01-12T14:10:25.836Z,7.50
2018-01-12T14:13:09.272Z,7.50
2018-01-12T14:15:53.690Z,7.40
2018-01-12T14:21:09.316Z,7.10
2018-01-12T14:23:42.413Z,7.10
2018-01-12T14:26:17.882Z,7.20
2018-01-12T14:28:52.376Z,7.20
2018-01-12T14:31:22.897Z,7.20
2018-01-12T14:33:56.445Z,7.40
2018-01-12T14:36:28.051Z,7.40
2018-01-12T14:39:05.189Z,7.40
2018-01-12T14:41:37.445Z,7.40
2018-01-12T14:44:12.758Z,7.40
2018-01-12T14:46:52.243Z,7.40
2018-01-12T14:49:23.148Z,7.20
2018-01-12T14:57:39.241Z,7.10
2018-01-12T15:00:24.233Z,7.00
2018-01-12T15:02:59.612Z,6.90
2018-01-12T15:05:34.727Z,7.10
2018-01-12T15:08:20.855Z,7.10
2018-01-12T15:10:57.468Z,7.10
2018-01-12T15:13:30.507Z,7.00
2018-01-12T15:16:11.519Z,7.00
2018-01-12T15:18:52.164Z,7.00
2018-01-12T15:21:34.201Z,7.00
2018-01-12T15:24:05.772Z,7.00
2018-01-12T15:26:39.574Z,7.00
2018-01-12T15:29:16.327Z,7.20
2018-01-12T15:32:01.726Z,7.30
2018-01-12T15:34:38.383Z,7.20
2018-01-12T15:37:16.237Z,7.20
2018-01-12T15:39:57.243Z,7.10
2018-01-12T15:42:30.191Z,7.00
2018-01-12T15:45:04.849Z,7.00
2018-01-12T15:47:39.836Z,7.20
2018-01-12T15:50:14.412Z,7.20
2018-01-12T15:52:57.365Z,7.30
2018-01-12T15:55:33.476Z,7.30
2018-01-12T15:58:16.014Z,7.30
2018-01-12T16:00:49.268Z,7.20
2018-01-12T16:03:27.309Z,7.10
2018-01-12T16:06:03.383Z,7.10
2018-01-12T16:11:21.713Z,7.20
2018-01-12T16:14:01.526Z,7.30
2018-01-12T16:16:33.062Z,7.30
2018-01-12T16:19:12.290Z,7.40
2018-01-12T16:21:44.248Z,7.50
2018-01-12T16:24:27.221Z,7.70
2018-01-12T16:27:02.083Z,7.70
2018-01-12T16:29:37.976Z,7.70
2018-01-12T16:32:15.903Z,7.70
2018-01-12T16:35:07.277Z,7.80
2018-01-12T16:37:49.980Z,7.80
2018-01-12T16:40:21.936Z,7.90
2018-01-12T16:42:58.168Z,8.00
2018-01-12T16:45:33.997Z,7.90
2018-01-12T16:48:12.914Z,8.00
2018-01-12T16:50:51.832Z,8.20
2018-01-12T16:53:25.652Z,8.20
2018-01-12T16:55:56.238Z,8.20
2018-01-12T16:58:30.988Z,8.20
2018-01-12T17:01:17.301Z,8.20
2018-01-12T17:03:53.332Z,8.20
2018-01-12T17:06:30.501Z,8.20
2018-01-12T17:09:17.427Z,8.20
2018-01-12T17:11:57.684Z,8.30
2018-01-12T17:14:41.674Z,8.10
2018-01-12T17:17:18.879Z,8.00
2018-01-12T17:20:06.062Z,8.20
2018-01-12T17:22:48.370Z,8.20
2018-01-12T17:25:26.319Z,8.30
2018-01-12T17:28:08.239Z,8.30
2018-01-12T17:30:59.313Z,8.40
2018-01-12T17:33:33.812Z,8.30
2018-01-12T17:36:09.817Z,8.30
2018-01-12T17:38:49.206Z,8.40
2018-01-12T17:44:25.934Z,8.50
2018-01-12T17:47:02.414Z,8.50
2018-01-12T17:49:45.129Z,8.50
2018-01-12T17:52:21.406Z,8.30
2018-01-12T17:54:52.839Z,8.20
2018-01-12T17:57:35.465Z,8.20
2018-01-12T18:00:09.285Z,8.30
2018-01-12T18:03:08.272Z,8.50
2018-01-12T18:05:58.959Z,8.40
2018-01-12T18:08:38.089Z,8.50
2018-01-12T18:11:10.739Z,8.50
2018-01-12T18:16:24.905Z,8.60
2018-01-12T18:19:04.195Z,8.70
2018-01-12T18:21:46.605Z,8.60
2018-01-12T18:24:24.907Z,8.30
2018-01-12T18:26:59.122Z,8.30
2018-01-12T18:29:48.580Z,8.40
2018-01-12T18:32:23.061Z,8.30
2018-01-12T18:34:55.581Z,8.20
2018-01-12T18:37:28.712Z,8.00
2018-01-12T18:40:06.365Z,8.00
2018-01-12T18:42:47.016Z,8.00
2018-01-12T18:45:33.426Z,8.00
2018-01-12T18:48:13.119Z,8.00
2018-01-12T18:50:58.672Z,8.00
2018-01-12T18:53:50.285Z,8.10
2018-01-12T18:56:39.604Z,7.90
2018-01-12T18:59:27.085Z,7.90
2018-01-12T19:02:07.378Z,7.90
2018-01-12T19:05:05.280Z,7.90
2018-01-12T19:08:00.613Z,7.90
2018-01-12T19:13:25.986Z,8.30
2018-01-12T19:15:59.162Z,8.40
2018-01-12T19:18:39.495Z,8.20
2018-01-12T19:21:23.835Z,8.20
2018-01-12T19:24:05.293Z,8.30
2018-01-12T19:26:47.862Z,8.30
2018-01-12T19:29:34.863Z,8.20
2018-01-12T19:34:59.733Z,8.50
2018-01-12T19:37:33.145Z,8.50
2018-01-12T19:40:08.680Z,8.50
2018-01-12T19:42:44.620Z,8.40
2018-01-12T19:45:18.416Z,8.40
2018-01-12T19:47:56.967Z,8.40
2018-01-12T19:50:45.303Z,8.30
2018-01-12T19:53:26.261Z,8.50
2018-01-12T19:56:11.327Z,8.50
2018-01-12T19:58:48.379Z,8.40
2018-01-12T20:01:19.949Z,8.50
2018-01-12T20:03:53.975Z,8.50
2018-01-12T20:06:35.059Z,8.50
2018-01-12T20:11:49.871Z,8.50
2018-01-12T20:14:36.464Z,8.30
2018-01-12T20:17:12.796Z,8.30
2018-01-12T20:19:50.190Z,8.00
2018-01-12T20:22:24.900Z,7.80
2018-01-12T20:25:03.921Z,7.90
2018-01-12T20:27:37.590Z,8.00
2018-01-12T20:30:11.714Z,8.10
2018-01-12T20:32:42.289Z,8.10
2018-01-12T20:35:37.244Z,8.00
2018-01-12T20:38:20.093Z,8.00
2018-01-12T20:40:58.337Z,8.10
2018-01-12T20:43:35.474Z,8.30
2018-01-12T20:46:14.085Z,8.30
2018-01-12T20:48:52.951Z,8.30
2018-01-12T20:51:33.712Z,8.30
2018-01-12T20:54:13.133Z,8.40
2018-01-12T20:56:53.581Z,8.40
2018-01-12T20:59:33.439Z,8.40
2018-01-12T21:02:25.190Z,8.40
2018-01-12T21:07:48.816Z,8.30
2018-01-12T21:10:25.114Z,8.30
2018-01-12T21:13:04.122Z,8.30
2018-01-12T21:15:45.331Z,8.30
2018-01-12T21:18:25.037Z,8.30
2018-01-12T21:21:05.923Z,8.40
2018-01-12T21:23:43.148Z,8.40
2018-01-12T21:26:19.970Z,8.40
2018-01-12T21:28:57.755Z,8.40
2018-01-12T21:31:30.888Z,8.40
2018-01-12T21:34:07.802Z,8.30
2018-01-12T21:36:42.874Z,8.20
2018-01-12T21:39:20.291Z,8.20
2018-01-12T21:41:56.429Z,8.10
2018-01-12T21:44:31.982Z,8.20
2018-01-12T21:47:12.591Z,8.20
2018-01-12T21:49:53.966Z,8.20
2018-01-12T21:52:32.222Z,8.20
2018-01-12T21:55:05.077Z,8.20
2018-01-12T21:57:42.056Z,8.20
2018-01-12T22:00:33.222Z,8.20
2018-01-12T22:03:30.472Z,8.20
2018-01-12T22:06:17.055Z,8.20
2018-01-12T22:08:47.308Z,8.20
2018-01-12T22:11:19.124Z,8.20
2018-01-12T22:13:50.984Z,8.20
2018-01-12T22:16:24.802Z,8.20
2018-01-12T22:18:56.286Z,8.30
2018-01-12T22:21:28.362Z,8.20
2018-01-12T22:24:03.302Z,8.20
2018-01-12T22:26:35.238Z,8.20
2018-01-12T22:29:12.258Z,8.10
2018-01-12T22:31:47.310Z,8.20
2018-01-12T22:34:18.977Z,8.30
2018-01-12T22:36:52.334Z,8.30
2018-01-12T22:39:32.691Z,8.30
2018-01-12T22:42:05.432Z,8.30
2018-01-12T22:44:41.329Z,8.30
2018-01-12T22:47:18.590Z,8.30
2018-01-12T22:49:53.655Z,8.30
2018-01-12T22:52:27.626Z,8.20
2018-01-12T22:55:07.081Z,8.20
2018-01-12T22:57:43.320Z,8.20
2018-01-12T23:00:22.843Z,8.30
2018-01-12T23:02:59.544Z,8.20
2018-01-12T23:05:37.821Z,8.30
2018-01-12T23:08:20.675Z,8.20
2018-01-12T23:11:29.953Z,8.20
2018-01-12T23:14:36.063Z,8.20
2018-01-12T23:17:19.562Z,8.20
2018-01-12T23:20:04.570Z,8.30
2018-01-12T23:22:52.120Z,8.30
2018-01-12T23:25:23.989Z,8.30
2018-01-12T23:27:55.465Z,8.20
2018-01-12T23:30:30.719Z,8.20
2018-01-12T23:33:04.562Z,8.20
2018-01-12T23:35:41.408Z,8.20
2018-01-12T23:38:12.403Z,8.30
2018-01-12T23:40:47.373Z,8.30
2018-01-12T23:43:20.591Z,8.30
2018-01-12T23:45:52.025Z,8.30
2018-01-12T23:48:25.669Z,8.40
2018-01-12T23:51:02.484Z,8.30
2018-01-12T23:53:41.260Z,8.20
2018-01-12T23:56:13.848Z,8.20
2018-01-12T23:58:47.223Z,8.10
